Meteo Giornale » Osservazioni meteo Italia » Lamezia Terme

ore: 03:50 - Osservazioni Meteo Lamezia Terme
Lat. 38° 54' N Lon. 16° 15' E Alt. 15 metri s.l.m.

poco_nuvoloso Europe/Rome

21 °C

Poco Nuvoloso

Temp. 24 Ore

21 °C

28 °C

Ovest

11.1 Km/h

Dew point 17 °C

Umidità 77 %

Visibilità  10 Km

Il sole sorge alle ore 05:50

Il sole tramonta alle ore 20:12

Data e Ora Cielo e Fenomeni T °C DP °C Um. % Pres. hPa Vis. km Vento km/h
Oggi h: 03:50 poco_nuvoloso Poco Nuvoloso 21 17 77 1009 10 O 11.1
Oggi h: 02:50 poco_nuvoloso Poco Nuvoloso 21 17 77 1009 10 O 9.3
Oggi h: 01:50 poco_nuvoloso Poco Nuvoloso 21 18 82 1009 10 N 3.7
Oggi h: 00:50 poco_nuvoloso Poco Nuvoloso 21 17 77 1009 10 N 0
Ieri h: 23:50 poco_nuvoloso Poco Nuvoloso 23 18 73 1009 10 SO 13
Ieri h: 22:50 poco_nuvoloso Poco Nuvoloso 23 16 64 1008 10 SO 9.3
Ieri h: 21:50 coperto_temporali Temporale 23 17 68 1008 10 O/SO 16.7
Ieri h: 20:50 nuvoloso_temporali Temporale con Pioggia Debole 22 17 73 1008 8 O 25.9
Ieri h: 19:50 nuvoloso Nuvoloso 25 17 61 1007 10 O/NO 16.7
Ieri h: 18:50 poco_nuvoloso Poco Nuvoloso 26 17 57 1007 10 O 25.9
Ieri h: 17:50 nuvoloso Nuvoloso 27 18 57 1007 10 O 31.5
Ieri h: 16:50 nuvoloso Nuvoloso 27 18 57 1007 10 O 31.5
Ieri h: 15:50 nuvoloso Nuvoloso 27 20 65 1007 10 O 29.6
Ieri h: 14:50 coperto_pioggia Pioggia Debole 25 19 69 1007 10 O 16.7
Ieri h: 13:50 nuvoloso Nuvoloso 25 21 78 1008 10 NO 11.1
Ieri h: 13:03 nuvoloso_piovaschi Rovescio di Pioggia 22 18 78 1008 2 O/NO 38.8
Ieri h: 12:54 coperto_pioggia Pioggia Debole 27 18 57 1007 10 O/NO 16.7
Ieri h: 12:50 nuvoloso Nuvoloso 28 18 54 1007 10 O 22.2
Ieri h: 11:50 poco_nuvoloso Poco Nuvoloso 28 17 51 1007 10 O/NO 20.3
Ieri h: 10:50 poco_nuvoloso Poco Nuvoloso 27 18 57 1007 10 O 18.5
Ieri h: 09:50 nuvoloso Nuvoloso 27 18 57 1007 10 O 22.2
Ieri h: 08:50 poco_nuvoloso Poco Nuvoloso 26 18 61 1007 10 O 18.5
Ieri h: 07:50 poco_nuvoloso Poco Nuvoloso 26 17 57 1006 10 O 20.3
Ieri h: 06:50 poco_nuvoloso Poco Nuvoloso 24 17 64 1006 10 O 16.7
Ieri h: 05:50 nuvoloso Nuvoloso 23 17 68 1006 10 O 14.8
Ieri h: 04:50 nuvoloso Nuvoloso 23 16 64 1006 10 O/NO 7.4